createdAt,value
2018-08-28T00:02:21.128Z,41.51
2018-08-28T00:04:47.082Z,41.31
2018-08-28T00:07:13.029Z,40.70
2018-08-28T00:09:38.956Z,40.55
2018-08-28T00:12:04.890Z,40.67
2018-08-28T00:14:30.853Z,40.62
2018-08-28T00:16:56.791Z,39.00
2018-08-28T00:19:22.725Z,41.85
2018-08-28T00:21:48.664Z,41.72
2018-08-28T00:24:14.600Z,40.62
2018-08-28T00:26:40.534Z,40.49
2018-08-28T00:29:06.485Z,40.87
2018-08-28T00:31:32.409Z,40.25
2018-08-28T00:33:58.365Z,39.85
2018-08-28T00:36:24.301Z,41.03
2018-08-28T00:38:50.264Z,40.25
2018-08-28T00:41:16.200Z,40.49
2018-08-28T00:43:42.458Z,41.29
2018-08-28T00:46:08.401Z,40.27
2018-08-28T00:48:34.361Z,40.75
2018-08-28T00:51:00.298Z,40.21
2018-08-28T00:53:26.247Z,40.79
2018-08-28T00:55:52.208Z,40.11
2018-08-28T00:58:18.176Z,40.47
2018-08-28T01:00:44.134Z,40.40
2018-08-28T01:03:10.114Z,40.40
2018-08-28T01:05:36.075Z,39.72
2018-08-28T01:08:02.028Z,40.03
2018-08-28T01:10:28.158Z,41.17
2018-08-28T01:12:54.156Z,40.65
2018-08-28T01:15:20.124Z,39.91
2018-08-28T01:17:46.064Z,40.20
2018-08-28T01:20:12.022Z,40.65
2018-08-28T01:22:37.999Z,40.47
2018-08-28T01:25:03.970Z,40.66
2018-08-28T01:27:29.930Z,40.35
2018-08-28T01:29:55.894Z,40.38
2018-08-28T01:32:21.852Z,40.25
2018-08-28T01:34:47.841Z,40.44
2018-08-28T01:37:13.869Z,40.60
2018-08-28T01:39:39.820Z,41.12
2018-08-28T01:42:05.771Z,40.30
2018-08-28T01:44:31.735Z,40.39
2018-08-28T01:46:57.668Z,41.48
2018-08-28T01:49:23.611Z,40.46
2018-08-28T01:51:49.556Z,41.18
2018-08-28T01:54:15.505Z,41.56
2018-08-28T01:56:41.451Z,40.18
2018-08-28T01:59:07.401Z,40.35
2018-08-28T02:01:33.343Z,39.93
2018-08-28T02:03:59.295Z,40.97
2018-08-28T02:06:25.250Z,40.29
2018-08-28T02:08:51.225Z,40.62
2018-08-28T02:11:17.168Z,41.38
2018-08-28T02:13:43.118Z,40.48
2018-08-28T02:16:09.078Z,41.22
2018-08-28T02:18:35.034Z,41.38
2018-08-28T02:21:00.995Z,41.39
2018-08-28T02:23:26.976Z,41.58
2018-08-28T02:25:52.952Z,41.98
2018-08-28T02:28:18.900Z,41.90
2018-08-28T02:30:44.981Z,41.41
2018-08-28T02:33:10.938Z,42.49
2018-08-28T02:35:36.899Z,41.49
2018-08-28T02:38:02.859Z,41.54
2018-08-28T02:40:28.810Z,41.98
2018-08-28T02:42:54.764Z,40.93
2018-08-28T02:45:20.716Z,40.75
2018-08-28T02:47:46.676Z,41.16
2018-08-28T02:50:12.655Z,40.77
2018-08-28T02:52:38.597Z,41.58
2018-08-28T02:55:04.541Z,40.89
2018-08-28T02:57:30.528Z,42.09
2018-08-28T02:59:56.522Z,42.35
2018-08-28T03:02:22.472Z,42.01
2018-08-28T03:04:48.417Z,40.57
2018-08-28T03:07:14.349Z,41.92
2018-08-28T03:09:40.292Z,41.42
2018-08-28T03:12:06.285Z,42.47
2018-08-28T03:14:32.276Z,41.50
2018-08-28T03:17:00.378Z,41.33
2018-08-28T03:19:26.337Z,40.95
2018-08-28T03:21:52.281Z,41.92
2018-08-28T03:24:18.239Z,42.51
2018-08-28T03:26:44.176Z,41.90
2018-08-28T03:29:10.247Z,41.59
2018-08-28T03:31:36.171Z,41.87
2018-08-28T03:34:02.127Z,41.48
2018-08-28T03:36:28.096Z,42.79
2018-08-28T03:38:54.053Z,41.66
2018-08-28T03:41:20.062Z,41.39
2018-08-28T03:43:46.088Z,42.09
2018-08-28T03:46:12.062Z,42.65
2018-08-28T03:48:38.094Z,41.69
2018-08-28T03:51:04.068Z,42.57
2018-08-28T03:53:30.053Z,42.89
2018-08-28T03:55:56.028Z,43.10
2018-08-28T03:58:21.972Z,42.73
2018-08-28T04:00:47.937Z,43.69
2018-08-28T04:03:13.908Z,43.35
2018-08-28T04:05:39.849Z,42.56
2018-08-28T04:08:05.799Z,42.53
2018-08-28T04:10:31.762Z,43.62
2018-08-28T04:12:57.726Z,41.99
2018-08-28T04:15:23.688Z,42.73
2018-08-28T04:17:49.732Z,43.67
2018-08-28T04:20:15.696Z,42.54
2018-08-28T04:22:41.747Z,43.33
2018-08-28T04:25:07.648Z,42.97
2018-08-28T04:27:33.594Z,43.52
2018-08-28T04:29:59.557Z,43.49
2018-08-28T04:32:25.521Z,42.77
2018-08-28T04:34:51.462Z,43.30
2018-08-28T04:37:17.436Z,42.89
2018-08-28T04:39:43.392Z,43.05
2018-08-28T04:42:09.367Z,42.29
2018-08-28T04:44:35.327Z,41.53
2018-08-28T04:47:01.305Z,41.72
2018-08-28T04:49:27.287Z,42.77
2018-08-28T04:51:53.290Z,42.60
2018-08-28T04:54:19.304Z,41.83
2018-08-28T04:56:45.246Z,42.65
2018-08-28T04:59:11.194Z,42.63
2018-08-28T05:01:37.145Z,41.81
2018-08-28T05:04:03.108Z,42.08
2018-08-28T05:06:29.076Z,41.19
2018-08-28T05:08:55.048Z,41.74
2018-08-28T05:11:21.010Z,41.78
2018-08-28T05:13:46.985Z,41.34
2018-08-28T05:16:12.952Z,40.58
2018-08-28T05:18:38.915Z,40.39
2018-08-28T05:21:04.860Z,40.97
2018-08-28T05:23:30.838Z,40.95
2018-08-28T05:25:56.795Z,41.87
2018-08-28T05:28:22.929Z,41.42
2018-08-28T05:30:48.876Z,42.18
2018-08-28T05:33:14.855Z,42.16
2018-08-28T05:35:40.823Z,41.07
2018-08-28T05:38:06.814Z,42.09
2018-08-28T05:40:32.760Z,41.67
2018-08-28T05:42:58.730Z,41.38
2018-08-28T05:45:24.706Z,42.15
2018-08-28T05:47:50.774Z,41.40
2018-08-28T05:50:16.783Z,41.66
2018-08-28T05:52:42.728Z,42.27
2018-08-28T05:55:08.678Z,42.22
2018-08-28T05:57:34.648Z,42.88
2018-08-28T06:00:00.603Z,42.90
2018-08-28T06:02:26.608Z,41.91
2018-08-28T06:04:52.545Z,42.64
2018-08-28T06:07:18.495Z,41.65
2018-08-28T06:09:44.448Z,41.93
2018-08-28T06:12:10.426Z,41.96
2018-08-28T06:14:36.460Z,42.64
2018-08-28T06:17:02.421Z,42.32
2018-08-28T06:19:28.364Z,42.67
2018-08-28T06:21:54.325Z,43.37
2018-08-28T06:24:20.289Z,43.44
2018-08-28T06:26:46.254Z,43.47
2018-08-28T06:29:12.230Z,43.88
2018-08-28T06:31:38.196Z,43.20
2018-08-28T06:34:04.259Z,43.66
2018-08-28T06:36:30.163Z,42.99
2018-08-28T06:38:56.137Z,43.44
2018-08-28T06:41:22.105Z,43.15
2018-08-28T06:43:48.096Z,42.91
2018-08-28T06:46:14.053Z,41.78
2018-08-28T06:48:40.039Z,40.80
2018-08-28T06:51:06.002Z,41.71
2018-08-28T06:53:31.965Z,40.63
2018-08-28T06:55:57.914Z,41.28
2018-08-28T06:58:23.900Z,40.82
2018-08-28T07:00:49.874Z,40.43
2018-08-28T07:03:15.894Z,40.88
2018-08-28T07:05:41.899Z,40.05
2018-08-28T07:08:08.015Z,39.32
2018-08-28T07:10:33.988Z,40.58
2018-08-28T07:12:59.966Z,40.56
2018-08-28T07:15:25.921Z,40.29
2018-08-28T07:17:51.903Z,40.52
2018-08-28T07:20:17.884Z,40.16
2018-08-28T07:22:43.822Z,40.20
2018-08-28T07:25:09.776Z,39.82
2018-08-28T07:27:35.726Z,40.11
2018-08-28T07:30:01.652Z,40.53
2018-08-28T07:32:27.605Z,39.62
2018-08-28T07:34:53.645Z,39.95
2018-08-28T07:37:19.677Z,40.59
2018-08-28T07:39:45.665Z,40.46
2018-08-28T07:42:11.632Z,40.03
2018-08-28T07:44:37.631Z,40.29
2018-08-28T07:47:03.591Z,40.01
2018-08-28T07:49:29.547Z,40.53
2018-08-28T07:51:55.489Z,39.71
2018-08-28T07:54:21.451Z,39.03
2018-08-28T07:56:47.416Z,39.17
2018-08-28T07:59:13.386Z,38.69
2018-08-28T08:01:39.336Z,38.64
2018-08-28T08:04:05.304Z,38.88
2018-08-28T08:06:31.248Z,38.75
2018-08-28T08:08:57.213Z,39.07
2018-08-28T08:11:24.225Z,39.86
2018-08-28T08:13:50.254Z,39.52
2018-08-28T08:16:16.306Z,39.04
2018-08-28T08:18:42.165Z,36.73
2018-08-28T08:21:08.133Z,35.93
2018-08-28T08:23:34.077Z,33.67
2018-08-28T08:26:00.033Z,32.04
2018-08-28T08:28:26.050Z,29.92
2018-08-28T08:30:52.040Z,29.78
2018-08-28T08:33:18.046Z,30.33
2018-08-28T08:35:44.027Z,31.87
2018-08-28T08:38:09.997Z,33.57
2018-08-28T08:40:35.975Z,34.47
2018-08-28T08:43:01.960Z,35.85
2018-08-28T08:45:27.914Z,36.14
2018-08-28T08:47:53.867Z,36.23
2018-08-28T08:50:19.899Z,37.15
2018-08-28T08:52:45.864Z,37.00
2018-08-28T08:55:11.873Z,37.76
2018-08-28T08:57:37.839Z,37.17
2018-08-28T09:00:03.821Z,37.20
2018-08-28T09:02:29.786Z,37.77
2018-08-28T09:04:55.740Z,37.63
2018-08-28T09:07:21.685Z,37.89
2018-08-28T09:09:47.658Z,37.52
2018-08-28T09:12:13.690Z,37.63
2018-08-28T09:14:39.665Z,37.67
2018-08-28T09:17:05.626Z,36.87
2018-08-28T09:19:31.578Z,37.67
2018-08-28T09:21:57.519Z,38.18
2018-08-28T09:24:23.471Z,38.35
2018-08-28T09:26:49.423Z,37.72
2018-08-28T09:29:15.358Z,37.89
2018-08-28T09:31:41.338Z,37.62
2018-08-28T09:34:07.268Z,37.45
2018-08-28T09:36:33.243Z,36.90
2018-08-28T09:38:59.201Z,36.12
2018-08-28T09:41:25.165Z,36.15
2018-08-28T09:43:51.172Z,35.89
2018-08-28T09:46:17.098Z,36.59
2018-08-28T09:48:43.067Z,36.16
2018-08-28T09:51:09.098Z,36.95
2018-08-28T09:53:35.021Z,36.51
2018-08-28T09:56:00.980Z,36.39
2018-08-28T09:58:26.929Z,35.46
2018-08-28T10:00:52.894Z,35.74
2018-08-28T10:03:18.855Z,35.86
2018-08-28T10:05:44.838Z,35.20
2018-08-28T10:08:10.770Z,35.19
2018-08-28T10:10:36.726Z,35.85
2018-08-28T10:13:02.717Z,35.86
2018-08-28T10:15:28.709Z,35.70
2018-08-28T10:17:54.654Z,35.46
2018-08-28T10:20:20.610Z,35.44
2018-08-28T10:22:46.540Z,35.16
2018-08-28T10:25:12.505Z,35.62
2018-08-28T10:27:38.463Z,34.66
2018-08-28T10:30:04.417Z,35.26
2018-08-28T10:32:30.379Z,35.42
2018-08-28T10:34:56.326Z,35.57
2018-08-28T10:37:22.267Z,34.14
2018-08-28T10:39:48.235Z,35.01
2018-08-28T10:42:14.177Z,34.86
2018-08-28T10:44:40.135Z,34.81
2018-08-28T10:47:06.107Z,34.05
2018-08-28T10:49:32.073Z,33.89
2018-08-28T10:51:58.042Z,33.44
2018-08-28T10:54:23.993Z,33.88
2018-08-28T10:56:49.967Z,34.38
2018-08-28T10:59:15.935Z,34.39
2018-08-28T11:01:41.982Z,34.26
2018-08-28T11:04:07.952Z,34.00
2018-08-28T11:06:33.960Z,33.55
2018-08-28T11:08:59.948Z,34.11
2018-08-28T11:11:25.892Z,34.47
2018-08-28T11:13:51.833Z,33.50
2018-08-28T11:16:17.837Z,33.99
2018-08-28T11:18:43.806Z,33.75
2018-08-28T11:21:09.882Z,34.05
2018-08-28T11:23:35.893Z,33.57
2018-08-28T11:26:02.901Z,32.81
2018-08-28T11:28:29.010Z,33.38
2018-08-28T11:30:55.021Z,32.90
2018-08-28T11:33:21.024Z,33.48
2018-08-28T11:35:47.010Z,33.40
2018-08-28T11:38:13.036Z,33.34
2018-08-28T11:40:38.958Z,33.48
2018-08-28T11:43:04.947Z,32.37
2018-08-28T11:45:30.896Z,32.90
2018-08-28T11:47:56.889Z,32.66
2018-08-28T11:50:22.870Z,31.98
2018-08-28T11:52:49.048Z,32.40
2018-08-28T11:55:14.993Z,33.01
2018-08-28T11:57:40.973Z,32.31
2018-08-28T12:00:06.919Z,33.17
2018-08-28T12:02:32.941Z,32.40
2018-08-28T12:04:59.026Z,32.25
2018-08-28T12:07:25.011Z,32.22
2018-08-28T12:09:50.949Z,31.92
2018-08-28T12:12:16.922Z,31.58
2018-08-28T12:14:42.877Z,31.50
2018-08-28T12:17:08.865Z,31.77
2018-08-28T12:19:34.945Z,32.19
2018-08-28T12:22:01.196Z,31.65
2018-08-28T12:24:27.156Z,31.13
2018-08-28T12:26:53.130Z,31.79
2018-08-28T12:29:19.097Z,32.17
2018-08-28T12:31:45.050Z,31.36
2018-08-28T12:34:10.981Z,31.88
2018-08-28T12:36:36.990Z,31.45
2018-08-28T12:39:02.917Z,31.28
2018-08-28T12:41:28.870Z,31.51
2018-08-28T12:43:55.028Z,31.52
2018-08-28T12:46:20.935Z,31.37
2018-08-28T12:48:46.901Z,31.59
2018-08-28T12:51:12.926Z,29.83
2018-08-28T12:53:38.906Z,31.24
2018-08-28T12:56:04.860Z,31.17
2018-08-28T12:58:30.837Z,31.40
2018-08-28T13:00:56.796Z,31.13
2018-08-28T13:03:22.789Z,31.32
2018-08-28T13:05:48.743Z,30.91
2018-08-28T13:08:14.722Z,31.43
2018-08-28T13:10:40.688Z,31.64
2018-08-28T13:13:06.723Z,31.91
2018-08-28T13:15:32.675Z,31.77
2018-08-28T13:17:58.652Z,30.68
2018-08-28T13:20:24.897Z,31.16
2018-08-28T13:22:50.908Z,32.09
2018-08-28T13:25:16.838Z,31.34
2018-08-28T13:27:42.866Z,31.52
2018-08-28T13:30:08.789Z,31.18
2018-08-28T13:32:34.724Z,30.81
2018-08-28T13:35:00.672Z,30.84
2018-08-28T13:37:26.645Z,31.36
2018-08-28T13:39:52.613Z,30.91
2018-08-28T13:42:18.567Z,30.49
2018-08-28T13:44:44.606Z,30.87
2018-08-28T13:47:10.683Z,30.84
2018-08-28T13:49:36.537Z,30.47
2018-08-28T13:52:02.470Z,29.81
2018-08-28T13:54:28.626Z,30.30
2018-08-28T13:56:54.427Z,30.83
2018-08-28T13:59:20.383Z,30.97
2018-08-28T14:01:46.327Z,29.58
2018-08-28T14:04:12.305Z,30.39
2018-08-28T14:06:38.286Z,31.21
2018-08-28T14:09:04.232Z,31.18
2018-08-28T14:11:30.192Z,29.80
2018-08-28T14:13:56.274Z,30.59
2018-08-28T14:16:22.164Z,30.92
2018-08-28T14:18:48.142Z,29.87
2018-08-28T14:21:14.117Z,31.00
2018-08-28T14:23:40.162Z,30.84
2018-08-28T14:26:06.117Z,30.61
2018-08-28T14:28:32.147Z,31.05
2018-08-28T14:30:58.144Z,30.41
2018-08-28T14:33:24.083Z,30.28
2018-08-28T14:35:50.068Z,29.93
2018-08-28T14:38:16.013Z,30.47
2018-08-28T14:40:41.968Z,30.52
2018-08-28T14:43:07.918Z,30.32
2018-08-28T14:45:33.888Z,30.26
2018-08-28T14:47:59.837Z,30.27
2018-08-28T14:50:25.911Z,29.04
2018-08-28T14:52:51.857Z,30.23
2018-08-28T14:55:17.818Z,29.59
2018-08-28T14:57:43.786Z,29.44
2018-08-28T15:00:09.761Z,29.68
2018-08-28T15:02:35.710Z,29.31
2018-08-28T15:05:01.693Z,29.89
2018-08-28T15:07:27.686Z,29.67
2018-08-28T15:09:53.653Z,30.06
2018-08-28T15:12:20.682Z,29.38
2018-08-28T15:14:46.663Z,28.93
2018-08-28T15:17:12.634Z,30.12
2018-08-28T15:19:38.631Z,29.82
2018-08-28T15:22:04.604Z,30.10
2018-08-28T15:24:30.605Z,29.50
2018-08-28T15:26:56.547Z,29.90
2018-08-28T15:29:22.525Z,30.05
2018-08-28T15:31:48.533Z,30.19
2018-08-28T15:34:14.494Z,30.34
2018-08-28T15:36:40.436Z,30.40
2018-08-28T15:39:06.368Z,30.02
2018-08-28T15:41:32.314Z,30.10
2018-08-28T15:43:58.241Z,29.70
2018-08-28T15:46:24.362Z,29.83
2018-08-28T15:48:50.336Z,30.37
2018-08-28T15:51:16.373Z,29.31
2018-08-28T15:53:42.296Z,30.28
2018-08-28T15:56:08.254Z,29.74
2018-08-28T15:58:34.200Z,29.51
2018-08-28T16:01:00.173Z,29.89
2018-08-28T16:03:26.128Z,29.99
2018-08-28T16:05:52.117Z,30.54
2018-08-28T16:08:18.094Z,29.34
2018-08-28T16:10:44.106Z,29.89
2018-08-28T16:13:10.063Z,30.01
2018-08-28T16:15:36.052Z,30.27
2018-08-28T16:18:02.082Z,29.91
2018-08-28T16:20:28.043Z,29.66
2018-08-28T16:22:53.985Z,29.44
2018-08-28T16:25:19.965Z,29.89
2018-08-28T16:27:45.934Z,30.51
2018-08-28T16:30:11.932Z,31.22
2018-08-28T16:32:37.940Z,30.78
2018-08-28T16:35:03.910Z,30.33
2018-08-28T16:37:29.906Z,31.01
2018-08-28T16:39:55.865Z,31.70
2018-08-28T16:42:21.822Z,30.83
2018-08-28T16:44:47.812Z,31.12
2018-08-28T16:47:13.775Z,30.75
2018-08-28T16:49:39.736Z,29.70
2018-08-28T16:52:05.673Z,30.31
2018-08-28T16:54:31.629Z,31.08
2018-08-28T16:56:57.581Z,29.84
2018-08-28T16:59:23.550Z,29.74
2018-08-28T17:01:49.585Z,30.50
2018-08-28T17:04:15.470Z,29.56
2018-08-28T17:06:41.436Z,30.26
2018-08-28T17:09:07.406Z,29.92
2018-08-28T17:11:33.419Z,28.87
2018-08-28T17:13:59.365Z,28.87
2018-08-28T17:16:25.310Z,29.03
2018-08-28T17:18:51.275Z,29.46
2018-08-28T17:21:17.252Z,29.25
2018-08-28T17:23:43.224Z,29.79
2018-08-28T17:26:09.230Z,29.25
2018-08-28T17:28:35.190Z,29.34
2018-08-28T17:31:01.186Z,28.12
2018-08-28T17:33:27.324Z,29.19
2018-08-28T17:35:53.102Z,28.87
2018-08-28T17:38:19.035Z,28.42
2018-08-28T17:40:44.992Z,28.31
2018-08-28T17:43:10.979Z,29.01
2018-08-28T17:45:36.926Z,28.78
2018-08-28T17:48:02.886Z,29.55
2018-08-28T17:50:28.849Z,29.68
2018-08-28T17:52:54.796Z,29.03
2018-08-28T17:55:20.749Z,28.71
2018-08-28T17:57:46.766Z,29.32
2018-08-28T18:00:12.785Z,29.67
2018-08-28T18:02:38.800Z,29.23
2018-08-28T18:05:04.774Z,30.08
2018-08-28T18:07:30.740Z,29.66
2018-08-28T18:09:56.751Z,30.88
2018-08-28T18:12:22.762Z,31.35
2018-08-28T18:14:48.769Z,31.15
2018-08-28T18:17:14.752Z,32.79
2018-08-28T18:19:40.718Z,31.63
2018-08-28T18:22:06.730Z,32.68
2018-08-28T18:24:32.755Z,33.00
2018-08-28T18:26:58.790Z,33.95
2018-08-28T18:29:24.798Z,32.95
2018-08-28T18:31:50.783Z,33.73
2018-08-28T18:34:16.740Z,34.24
2018-08-28T18:36:42.743Z,33.69
2018-08-28T18:39:08.717Z,34.74
2018-08-28T18:41:34.786Z,33.36
2018-08-28T18:44:00.681Z,34.71
2018-08-28T18:46:26.688Z,34.10
2018-08-28T18:48:52.689Z,34.25
2018-08-28T18:51:18.702Z,34.65
2018-08-28T18:53:44.695Z,34.74
2018-08-28T18:56:10.810Z,34.45
2018-08-28T18:58:36.723Z,33.94
2018-08-28T19:01:02.678Z,33.59
2018-08-28T19:03:28.690Z,33.60
2018-08-28T19:05:54.665Z,33.53
2018-08-28T19:08:20.830Z,34.78
2018-08-28T19:10:46.872Z,34.04
2018-08-28T19:13:12.973Z,35.42
2018-08-28T19:15:38.961Z,34.77
2018-08-28T19:18:04.974Z,35.03
2018-08-28T19:20:31.028Z,34.56
2018-08-28T19:22:57.058Z,34.62
2018-08-28T19:25:23.175Z,34.43
2018-08-28T19:27:49.173Z,34.81
2018-08-28T19:30:15.149Z,34.89
2018-08-28T19:32:41.152Z,35.19
2018-08-28T19:35:07.211Z,35.41
2018-08-28T19:37:33.262Z,36.27
2018-08-28T19:39:59.219Z,35.84
2018-08-28T19:42:25.203Z,35.33
2018-08-28T19:44:51.204Z,35.25
2018-08-28T19:47:17.271Z,35.89
2018-08-28T19:49:43.227Z,35.41
2018-08-28T19:52:09.215Z,36.12
2018-08-28T19:54:35.303Z,36.42
2018-08-28T19:57:01.318Z,36.19
2018-08-28T19:59:27.411Z,36.18
2018-08-28T20:01:53.366Z,35.98
2018-08-28T20:04:19.334Z,35.92
2018-08-28T20:06:45.345Z,36.48
2018-08-28T20:09:11.572Z,36.21
2018-08-28T20:11:37.567Z,37.12
2018-08-28T20:14:03.683Z,36.67
2018-08-28T20:16:29.651Z,36.29
2018-08-28T20:18:55.654Z,36.66
2018-08-28T20:21:21.647Z,37.07
2018-08-28T20:23:47.664Z,36.95
2018-08-28T20:26:14.833Z,36.63
2018-08-28T20:28:41.880Z,37.65
2018-08-28T20:31:07.853Z,37.07
2018-08-28T20:33:33.854Z,37.79
2018-08-28T20:35:59.860Z,38.29
2018-08-28T20:38:25.824Z,37.68
2018-08-28T20:40:51.789Z,37.36
2018-08-28T20:43:17.777Z,37.63
2018-08-28T20:45:43.780Z,38.63
2018-08-28T20:48:09.762Z,36.98
2018-08-28T20:50:35.712Z,37.49
2018-08-28T20:53:01.703Z,37.05
2018-08-28T20:55:27.687Z,37.55
2018-08-28T20:57:53.707Z,37.53
2018-08-28T21:00:19.601Z,37.07
2018-08-28T21:02:45.577Z,36.90
2018-08-28T21:05:11.536Z,38.42
2018-08-28T21:07:37.477Z,37.82
2018-08-28T21:10:03.484Z,38.32
2018-08-28T21:12:29.496Z,37.30
2018-08-28T21:14:55.419Z,38.34
2018-08-28T21:17:21.359Z,38.27
2018-08-28T21:19:47.341Z,37.67
2018-08-28T21:22:13.308Z,39.18
2018-08-28T21:24:39.304Z,39.37
2018-08-28T21:27:05.262Z,39.17
2018-08-28T21:29:31.247Z,38.93
2018-08-28T21:31:57.218Z,39.96
2018-08-28T21:34:23.176Z,39.56
2018-08-28T21:36:49.144Z,39.78
2018-08-28T21:39:15.102Z,40.29
2018-08-28T21:41:41.060Z,40.23
2018-08-28T21:44:07.031Z,39.60
2018-08-28T21:46:32.997Z,40.53
2018-08-28T21:48:58.959Z,40.52
2018-08-28T21:51:24.948Z,40.75
2018-08-28T21:53:50.897Z,40.21
2018-08-28T21:56:16.871Z,40.76
2018-08-28T21:58:42.809Z,40.25
2018-08-28T22:01:08.803Z,40.10
2018-08-28T22:03:34.757Z,40.26
2018-08-28T22:06:00.743Z,40.87
2018-08-28T22:08:26.685Z,40.46
2018-08-28T22:10:52.688Z,39.36
2018-08-28T22:13:18.679Z,40.77
2018-08-28T22:15:44.680Z,40.55
2018-08-28T22:18:10.646Z,40.92
2018-08-28T22:20:36.590Z,41.58
2018-08-28T22:23:02.597Z,41.03
2018-08-28T22:25:28.556Z,40.69
2018-08-28T22:27:54.490Z,40.56
2018-08-28T22:30:20.458Z,41.09
2018-08-28T22:32:46.453Z,40.56
2018-08-28T22:35:12.436Z,40.51
2018-08-28T22:37:38.420Z,41.22
2018-08-28T22:40:04.362Z,42.34
2018-08-28T22:42:30.313Z,42.65
2018-08-28T22:44:56.277Z,42.60
2018-08-28T22:47:22.239Z,42.53
2018-08-28T22:49:48.205Z,41.67
2018-08-28T22:52:14.199Z,41.91
2018-08-28T22:54:40.156Z,42.92
2018-08-28T22:57:06.136Z,43.31
2018-08-28T22:59:32.128Z,42.41
2018-08-28T23:01:58.107Z,41.66
2018-08-28T23:04:24.077Z,42.37
2018-08-28T23:06:50.035Z,41.98
2018-08-28T23:09:16.000Z,42.38
2018-08-28T23:11:42.012Z,42.14
2018-08-28T23:14:08.063Z,42.50
2018-08-28T23:16:34.043Z,42.01
2018-08-28T23:19:00.003Z,42.98
2018-08-28T23:21:26.153Z,43.01
2018-08-28T23:23:52.117Z,43.50
2018-08-28T23:26:18.054Z,42.36
2018-08-28T23:28:44.003Z,42.10
2018-08-28T23:31:09.942Z,41.88
2018-08-28T23:33:35.872Z,42.94
2018-08-28T23:36:01.850Z,42.84
2018-08-28T23:38:27.785Z,43.07
2018-08-28T23:40:53.743Z,43.13
2018-08-28T23:43:19.710Z,42.73
2018-08-28T23:45:45.649Z,42.62
2018-08-28T23:48:11.596Z,42.36
2018-08-28T23:50:37.542Z,43.02
2018-08-28T23:53:03.503Z,43.61
2018-08-28T23:55:29.432Z,43.95
2018-08-28T23:57:55.390Z,43.41
